createdAt,value
2022-10-17T00:01:29.865Z,12.11
2022-10-17T00:03:56.468Z,12.27
2022-10-17T00:06:24.647Z,12.15
2022-10-17T00:08:52.040Z,12.01
2022-10-17T00:11:22.065Z,11.98
2022-10-17T00:13:50.492Z,11.95
2022-10-17T00:16:26.038Z,11.91
2022-10-17T00:18:52.795Z,11.95
2022-10-17T00:21:20.325Z,11.77
2022-10-17T00:23:47.786Z,11.78
2022-10-17T00:26:15.786Z,11.76
2022-10-17T00:28:42.803Z,11.77
2022-10-17T00:31:10.385Z,11.71
2022-10-17T00:33:37.046Z,11.67
2022-10-17T00:36:16.901Z,11.75
2022-10-17T00:38:46.029Z,11.74
2022-10-17T00:41:16.833Z,11.84
2022-10-17T00:44:02.313Z,11.79
2022-10-17T00:46:31.886Z,11.82
2022-10-17T00:49:02.500Z,11.83
2022-10-17T00:51:42.388Z,11.93
2022-10-17T00:54:10.925Z,11.97
2022-10-17T00:56:38.431Z,11.81
2022-10-17T01:01:39.920Z,11.54
2022-10-17T01:04:07.029Z,11.64
2022-10-17T01:06:33.579Z,11.49
2022-10-17T01:09:00.258Z,11.63
2022-10-17T01:12:01.381Z,11.50
2022-10-17T01:14:49.282Z,11.48
2022-10-17T01:17:29.939Z,11.40
2022-10-17T01:20:26.277Z,11.38
2022-10-17T01:23:03.695Z,11.30
2022-10-17T01:25:55.195Z,11.26
2022-10-17T01:28:34.023Z,11.26
2022-10-17T01:31:03.765Z,11.35
2022-10-17T01:33:59.145Z,11.41
2022-10-17T01:36:51.379Z,11.43
2022-10-17T01:39:30.116Z,11.45
2022-10-17T01:42:13.545Z,11.41
2022-10-17T01:44:50.465Z,11.31
2022-10-17T01:47:25.607Z,11.47
2022-10-17T01:49:56.781Z,11.60
2022-10-17T01:52:43.151Z,11.52
2022-10-17T01:55:14.905Z,11.57
2022-10-17T01:57:59.427Z,11.55
2022-10-17T02:00:29.181Z,11.54
2022-10-17T02:03:00.244Z,11.53
2022-10-17T02:05:32.063Z,11.65
2022-10-17T02:07:58.650Z,11.59
2022-10-17T02:10:39.088Z,11.48
2022-10-17T02:13:40.795Z,11.46
2022-10-17T02:16:34.073Z,11.46
2022-10-17T02:19:24.261Z,11.47
2022-10-17T02:22:03.014Z,11.44
2022-10-17T02:24:38.649Z,11.35
2022-10-17T02:27:23.997Z,11.46
2022-10-17T02:29:58.958Z,11.54
2022-10-17T02:32:32.415Z,11.55
2022-10-17T02:35:02.576Z,11.55
2022-10-17T02:37:31.582Z,11.52
2022-10-17T02:40:00.621Z,11.55
2022-10-17T02:42:29.071Z,11.68
2022-10-17T02:45:01.124Z,11.74
2022-10-17T02:47:40.606Z,11.72
2022-10-17T02:50:07.691Z,11.73
2022-10-17T02:52:51.186Z,11.81
2022-10-17T02:55:38.500Z,11.78
2022-10-17T02:58:22.425Z,11.77
2022-10-17T03:00:49.302Z,11.82
2022-10-17T03:03:28.251Z,11.87
2022-10-17T03:05:59.412Z,11.92
2022-10-17T03:08:26.158Z,12.12
2022-10-17T03:10:52.747Z,12.26
2022-10-17T03:13:20.637Z,12.54
2022-10-17T03:15:47.479Z,12.52
2022-10-17T03:18:14.337Z,12.66
2022-10-17T03:20:40.986Z,12.53
2022-10-17T03:23:08.652Z,12.60
2022-10-17T03:25:36.241Z,12.59
2022-10-17T03:28:02.926Z,12.51
2022-10-17T03:30:29.515Z,12.69
2022-10-17T03:32:57.893Z,12.74
2022-10-17T03:35:24.908Z,12.63
2022-10-17T03:37:52.279Z,12.66
2022-10-17T03:40:20.951Z,12.47
2022-10-17T03:42:48.395Z,12.60
2022-10-17T03:45:14.981Z,12.56
2022-10-17T03:47:42.030Z,12.66
2022-10-17T03:50:09.195Z,12.64
2022-10-17T03:52:37.782Z,12.55
2022-10-17T03:55:04.841Z,12.62
2022-10-17T03:57:31.804Z,12.55
2022-10-17T03:59:58.913Z,12.49
2022-10-17T04:02:25.548Z,12.29
2022-10-17T04:04:52.175Z,12.47
2022-10-17T04:07:18.857Z,12.64
2022-10-17T04:09:47.822Z,12.47
2022-10-17T04:12:19.025Z,12.33
2022-10-17T04:14:45.753Z,12.28
2022-10-17T04:17:12.333Z,12.37
2022-10-17T04:19:38.967Z,12.36
2022-10-17T04:22:08.446Z,12.48
2022-10-17T04:24:37.241Z,12.58
2022-10-17T04:27:06.506Z,12.47
2022-10-17T04:29:36.981Z,12.48
2022-10-17T04:32:15.258Z,12.47
2022-10-17T04:34:57.034Z,12.50
2022-10-17T04:37:24.056Z,12.59
2022-10-17T04:39:53.293Z,12.63
2022-10-17T04:42:20.128Z,12.53
2022-10-17T04:44:47.247Z,12.45
2022-10-17T04:47:16.510Z,12.44
2022-10-17T04:49:43.715Z,12.34
2022-10-17T04:52:10.977Z,12.68
2022-10-17T04:54:40.578Z,12.83
2022-10-17T04:57:09.714Z,12.95
2022-10-17T04:59:36.534Z,12.96
2022-10-17T05:02:23.373Z,13.03
2022-10-17T05:04:50.687Z,13.23
2022-10-17T05:07:17.479Z,13.25
2022-10-17T05:09:55.001Z,13.21
2022-10-17T05:12:22.882Z,13.16
2022-10-17T05:14:49.465Z,13.27
2022-10-17T05:17:16.033Z,13.17
2022-10-17T05:19:42.705Z,13.00
2022-10-17T05:22:09.612Z,13.05
2022-10-17T05:24:36.182Z,12.99
2022-10-17T05:27:03.508Z,13.06
2022-10-17T05:29:30.111Z,13.14
2022-10-17T05:32:06.047Z,13.25
2022-10-17T05:34:34.519Z,13.31
2022-10-17T05:37:01.494Z,13.36
2022-10-17T05:39:28.231Z,13.38
2022-10-17T05:41:56.460Z,13.41
2022-10-17T05:44:23.168Z,13.37
2022-10-17T05:46:54.207Z,13.36
2022-10-17T05:49:32.971Z,13.28
2022-10-17T05:52:07.949Z,13.42
2022-10-17T05:54:45.011Z,13.41
2022-10-17T05:57:12.030Z,13.39
2022-10-17T05:59:40.412Z,13.33
2022-10-17T06:02:13.078Z,13.51
2022-10-17T06:04:45.480Z,13.50
2022-10-17T06:07:13.169Z,13.51
2022-10-17T06:09:40.367Z,13.57
2022-10-17T06:12:08.417Z,13.39
2022-10-17T06:14:35.472Z,13.55
2022-10-17T06:17:03.463Z,13.61
2022-10-17T06:19:30.103Z,13.58
2022-10-17T06:21:56.734Z,13.68
2022-10-17T06:24:25.463Z,13.71
2022-10-17T06:26:53.311Z,13.69
2022-10-17T06:29:21.529Z,13.69
2022-10-17T06:31:50.942Z,13.66
2022-10-17T06:34:18.609Z,13.52
2022-10-17T06:36:45.871Z,13.54
2022-10-17T06:39:12.936Z,13.60
2022-10-17T06:41:56.463Z,13.84
2022-10-17T06:44:37.040Z,13.98
2022-10-17T06:47:30.063Z,14.03
2022-10-17T06:49:59.311Z,14.12
2022-10-17T06:52:41.971Z,14.20
2022-10-17T06:55:27.447Z,14.41
2022-10-17T06:58:09.851Z,14.57
2022-10-17T07:03:37.001Z,14.69
2022-10-17T07:06:04.603Z,14.79
2022-10-17T07:08:31.546Z,14.80
2022-10-17T07:11:09.726Z,14.79
2022-10-17T07:13:39.198Z,14.81
2022-10-17T07:16:07.000Z,14.95
2022-10-17T07:18:34.068Z,15.05
2022-10-17T07:21:01.010Z,15.08
2022-10-17T07:23:28.075Z,15.24
2022-10-17T07:26:00.509Z,15.55
2022-10-17T07:28:28.685Z,15.78
2022-10-17T07:31:02.669Z,16.01
2022-10-17T07:33:30.611Z,16.00
2022-10-17T07:35:59.554Z,16.08
2022-10-17T07:38:26.933Z,16.15
2022-10-17T07:40:57.661Z,16.29
2022-10-17T07:43:25.778Z,16.32
2022-10-17T07:45:54.238Z,16.45
2022-10-17T07:48:22.175Z,16.61
2022-10-17T07:50:49.502Z,16.82
2022-10-17T07:53:16.647Z,16.81
2022-10-17T07:55:44.924Z,16.86
2022-10-17T07:58:11.451Z,17.04
2022-10-17T08:00:38.612Z,17.10
2022-10-17T08:03:06.270Z,17.20
2022-10-17T08:05:33.812Z,17.29
2022-10-17T08:08:00.664Z,17.43
2022-10-17T08:10:29.324Z,17.54
2022-10-17T08:12:57.083Z,17.61
2022-10-17T08:15:27.969Z,17.60
2022-10-17T08:17:58.591Z,17.77
2022-10-17T08:20:25.216Z,17.83
2022-10-17T08:22:55.565Z,17.99
2022-10-17T08:25:22.870Z,18.08
2022-10-17T08:27:49.906Z,18.17
2022-10-17T08:30:17.623Z,18.17
2022-10-17T08:32:44.202Z,18.39
2022-10-17T08:35:10.837Z,18.52
2022-10-17T08:37:37.467Z,18.52
2022-10-17T08:40:04.599Z,18.62
2022-10-17T08:42:41.645Z,18.68
2022-10-17T08:45:37.665Z,18.82
2022-10-17T08:48:09.922Z,18.84
2022-10-17T08:50:55.209Z,18.98
2022-10-17T08:53:35.253Z,19.16
2022-10-17T08:56:19.803Z,19.42
2022-10-17T08:58:52.063Z,19.89
2022-10-17T09:01:33.995Z,20.33
2022-10-17T09:04:22.950Z,21.07
2022-10-17T09:07:01.887Z,21.07
2022-10-17T09:09:52.355Z,-146.37
2022-10-17T09:12:47.427Z,-146.37
2022-10-17T09:15:34.617Z,-146.37
2022-10-17T09:18:05.349Z,-146.37
2022-10-17T09:20:40.617Z,-146.37
2022-10-17T09:23:15.311Z,-146.37
2022-10-17T09:25:45.870Z,-146.37
2022-10-17T09:28:33.177Z,-146.37
2022-10-17T09:31:04.103Z,-146.37
2022-10-17T09:33:53.416Z,-146.37
2022-10-17T09:36:20.999Z,-146.37
2022-10-17T09:38:50.746Z,-146.37
2022-10-17T09:44:18.331Z,-146.37
2022-10-17T09:47:02.910Z,-146.37
2022-10-17T09:49:33.781Z,-146.37
2022-10-17T09:52:06.263Z,-146.37
2022-10-17T09:54:42.006Z,-146.37
2022-10-17T09:57:10.939Z,-146.37
2022-10-17T09:59:44.146Z,-146.37
2022-10-17T10:02:13.749Z,-146.37
2022-10-17T10:05:06.741Z,-146.37
2022-10-17T10:07:37.050Z,-146.37
2022-10-17T10:10:06.843Z,-146.37
2022-10-17T10:12:37.067Z,-146.37
2022-10-17T10:15:34.027Z,-146.37
2022-10-17T10:18:01.034Z,-146.37
2022-10-17T10:20:36.632Z,-146.37
2022-10-17T10:23:14.250Z,-146.37
2022-10-17T10:25:57.432Z,-146.37
2022-10-17T10:28:31.220Z,-146.37
2022-10-17T10:31:02.346Z,21.07
2022-10-17T10:33:30.721Z,26.68
2022-10-17T10:36:03.457Z,27.13
2022-10-17T10:38:32.757Z,27.91
2022-10-17T10:41:07.711Z,-146.37
2022-10-17T10:43:38.551Z,-146.37
2022-10-17T10:46:22.646Z,-146.37
2022-10-17T10:49:00.614Z,-146.37
2022-10-17T10:51:33.977Z,-146.37
2022-10-17T10:54:11.734Z,-146.37
2022-10-17T10:56:43.782Z,-146.37
2022-10-17T10:59:20.708Z,-146.37
2022-10-17T11:01:50.504Z,-146.37
2022-10-17T11:04:23.461Z,-146.37
2022-10-17T11:06:55.360Z,-146.37
2022-10-17T11:09:40.517Z,-146.37
2022-10-17T11:12:30.399Z,-146.37
2022-10-17T11:15:06.178Z,-146.37
2022-10-17T11:17:39.584Z,-146.37
2022-10-17T11:20:09.106Z,-146.37
2022-10-17T11:22:44.374Z,-146.37
2022-10-17T11:25:34.522Z,-146.37
2022-10-17T11:28:04.883Z,-146.37
2022-10-17T11:33:15.986Z,-146.37
2022-10-17T11:35:46.135Z,-146.37
2022-10-17T11:38:30.862Z,-146.37
2022-10-17T11:40:59.866Z,-146.37
2022-10-17T11:43:40.375Z,-146.37
2022-10-17T11:46:28.485Z,-146.37
2022-10-17T11:49:04.102Z,-146.37
2022-10-17T11:54:50.356Z,-146.37
2022-10-17T11:57:29.682Z,-146.37
2022-10-17T12:00:17.718Z,-146.37
2022-10-17T12:03:21.411Z,-146.37
2022-10-17T12:05:57.201Z,-146.37
2022-10-17T12:08:45.354Z,-146.37
2022-10-17T12:11:22.708Z,-146.37
2022-10-17T12:13:51.993Z,-146.37
2022-10-17T12:16:21.482Z,-146.37
2022-10-17T12:19:06.289Z,-146.37
2022-10-17T12:22:03.932Z,-146.37
2022-10-17T12:24:36.706Z,-146.37
2022-10-17T12:27:32.367Z,-146.37
2022-10-17T12:30:05.972Z,-146.37
2022-10-17T12:32:46.861Z,-146.37
2022-10-17T12:35:22.393Z,-146.37
2022-10-17T12:37:48.902Z,-146.37
2022-10-17T12:40:37.226Z,-146.37
2022-10-17T12:43:16.123Z,-146.37
2022-10-17T12:45:48.676Z,-146.37
2022-10-17T12:48:33.872Z,-146.37
2022-10-17T12:54:12.731Z,-146.37
2022-10-17T12:56:44.252Z,-146.37
2022-10-17T12:59:24.870Z,-146.37
2022-10-17T13:01:56.246Z,-146.37
2022-10-17T13:04:23.811Z,-146.37
2022-10-17T13:06:56.693Z,-146.37
2022-10-17T13:09:28.690Z,-146.37
2022-10-17T13:11:58.095Z,-146.37
2022-10-17T13:14:25.827Z,-146.37
2022-10-17T13:17:01.654Z,-146.37
2022-10-17T13:19:40.611Z,-146.37
2022-10-17T13:22:15.496Z,-146.37
2022-10-17T13:24:42.127Z,-146.37
2022-10-17T13:27:27.806Z,-146.37
2022-10-17T13:29:56.645Z,-146.37
2022-10-17T13:32:24.763Z,-146.37
2022-10-17T13:35:11.561Z,-146.37
2022-10-17T13:37:41.544Z,-146.37
2022-10-17T13:40:40.937Z,-146.37
2022-10-17T13:43:05.908Z,-146.37
2022-10-17T13:45:37.083Z,-146.37
2022-10-17T13:48:06.360Z,-146.37
2022-10-17T13:50:44.418Z,-146.37
2022-10-17T13:53:28.654Z,-146.37
2022-10-17T13:56:28.523Z,-146.37
2022-10-17T13:59:08.205Z,-146.37
2022-10-17T14:01:35.245Z,-146.37
2022-10-17T14:04:08.839Z,-146.37
2022-10-17T14:06:47.590Z,-146.37
2022-10-17T14:09:28.590Z,-146.37
2022-10-17T14:12:13.561Z,-146.37
2022-10-17T14:15:13.002Z,-146.37
2022-10-17T14:17:34.034Z,-146.37
2022-10-17T14:20:40.371Z,-146.37
2022-10-17T14:23:17.546Z,-146.37
2022-10-17T14:25:39.862Z,-146.37
2022-10-17T14:28:13.780Z,-146.37
2022-10-17T14:30:56.221Z,-146.37
2022-10-17T14:33:32.583Z,-146.37
2022-10-17T14:36:01.907Z,-146.37
2022-10-17T14:38:30.103Z,-146.37
2022-10-17T14:44:19.299Z,-146.37
2022-10-17T14:46:50.882Z,-146.37
2022-10-17T14:49:25.759Z,-146.37
2022-10-17T14:52:14.914Z,-146.37
2022-10-17T14:54:47.998Z,-146.37
2022-10-17T14:57:32.841Z,-146.37
2022-10-17T14:59:59.460Z,-146.37
2022-10-17T15:02:28.381Z,-146.37
2022-10-17T15:04:55.766Z,-146.37
2022-10-17T15:07:23.773Z,-146.37
2022-10-17T15:09:52.722Z,-146.37
2022-10-17T15:12:23.512Z,-146.37
2022-10-17T15:14:51.589Z,-146.37
2022-10-17T15:17:24.234Z,-146.37
2022-10-17T15:19:50.962Z,-146.37
2022-10-17T15:22:18.330Z,-146.37
2022-10-17T15:24:46.266Z,27.91
2022-10-17T15:27:18.377Z,19.71
2022-10-17T15:29:45.527Z,19.70
2022-10-17T15:32:12.355Z,19.60
2022-10-17T15:34:38.924Z,19.54
2022-10-17T15:37:07.051Z,19.52
2022-10-17T15:39:33.796Z,19.37
2022-10-17T15:42:00.427Z,19.34
2022-10-17T15:44:27.006Z,19.35
2022-10-17T15:46:55.564Z,19.14
2022-10-17T15:49:22.088Z,19.09
2022-10-17T15:51:53.065Z,19.06
2022-10-17T15:54:21.968Z,19.01
2022-10-17T15:56:54.017Z,18.96
2022-10-17T15:59:24.724Z,18.82
2022-10-17T16:01:51.276Z,18.80
2022-10-17T16:04:18.713Z,18.69
2022-10-17T16:06:45.427Z,18.65
2022-10-17T16:09:11.947Z,18.57
2022-10-17T16:11:41.576Z,18.53
2022-10-17T16:14:12.306Z,18.58
2022-10-17T16:16:39.420Z,18.53
2022-10-17T16:19:06.786Z,18.38
2022-10-17T16:21:35.579Z,18.43
2022-10-17T16:24:03.709Z,18.43
2022-10-17T16:26:30.460Z,18.34
2022-10-17T16:28:58.323Z,18.28
2022-10-17T16:31:29.283Z,18.19
2022-10-17T16:33:57.988Z,18.07
2022-10-17T16:36:25.037Z,18.01
2022-10-17T16:38:54.055Z,17.92
2022-10-17T16:41:31.899Z,17.96
2022-10-17T16:44:00.362Z,17.96
2022-10-17T16:46:29.070Z,17.92
2022-10-17T16:48:55.819Z,17.86
2022-10-17T16:51:22.876Z,17.82
2022-10-17T16:53:52.768Z,17.74
2022-10-17T16:56:21.497Z,17.70
2022-10-17T16:58:48.957Z,17.63
2022-10-17T17:01:20.641Z,17.62
2022-10-17T17:03:47.785Z,17.55
2022-10-17T17:06:18.999Z,17.57
2022-10-17T17:08:45.904Z,17.51
2022-10-17T17:11:14.690Z,17.58
2022-10-17T17:13:41.648Z,17.53
2022-10-17T17:16:11.297Z,17.52
2022-10-17T17:18:38.337Z,17.44
2022-10-17T17:21:06.992Z,17.36
2022-10-17T17:23:35.640Z,17.38
2022-10-17T17:26:13.454Z,17.30
2022-10-17T17:28:40.265Z,17.19
2022-10-17T17:31:13.095Z,17.17
2022-10-17T17:33:40.808Z,17.10
2022-10-17T17:36:08.554Z,17.11
2022-10-17T17:38:36.225Z,17.11
2022-10-17T17:41:03.542Z,17.27
2022-10-17T17:43:30.615Z,17.23
2022-10-17T17:45:57.114Z,17.20
2022-10-17T17:48:23.668Z,17.23
2022-10-17T17:50:50.272Z,17.32
2022-10-17T17:53:17.439Z,17.27
2022-10-17T17:55:44.736Z,17.36
2022-10-17T17:58:12.471Z,17.39
2022-10-17T18:00:40.688Z,17.38
2022-10-17T18:03:07.903Z,17.39
2022-10-17T18:05:34.514Z,17.43
2022-10-17T18:08:01.101Z,17.42
2022-10-17T18:10:29.114Z,17.31
2022-10-17T18:12:55.661Z,17.35
2022-10-17T18:15:22.198Z,17.36
2022-10-17T18:17:49.347Z,17.41
2022-10-17T18:20:15.953Z,17.38
2022-10-17T18:22:42.619Z,17.36
2022-10-17T18:25:09.649Z,17.33
2022-10-17T18:27:36.343Z,17.28
2022-10-17T18:30:03.815Z,17.26
2022-10-17T18:32:31.894Z,17.17
2022-10-17T18:34:58.763Z,17.16
2022-10-17T18:37:25.469Z,17.17
2022-10-17T18:39:54.063Z,17.16
2022-10-17T18:42:21.015Z,17.11
2022-10-17T18:44:47.994Z,17.11
2022-10-17T18:47:14.544Z,17.11
2022-10-17T18:49:41.101Z,17.06
2022-10-17T18:52:07.653Z,17.01
2022-10-17T18:54:34.731Z,17.07
2022-10-17T18:57:01.331Z,17.11
2022-10-17T18:59:28.021Z,17.10
2022-10-17T19:01:54.635Z,17.01
2022-10-17T19:04:21.429Z,16.98
2022-10-17T19:06:48.072Z,16.88
2022-10-17T19:09:15.123Z,16.99
2022-10-17T19:11:42.853Z,16.89
2022-10-17T19:14:14.829Z,16.80
2022-10-17T19:16:46.840Z,16.62
2022-10-17T19:19:22.482Z,16.65
2022-10-17T19:21:49.800Z,16.55
2022-10-17T19:24:25.216Z,16.50
2022-10-17T19:26:53.897Z,16.36
2022-10-17T19:29:23.808Z,16.25
2022-10-17T19:31:50.662Z,16.32
2022-10-17T19:34:18.010Z,16.37
2022-10-17T19:36:45.580Z,16.15
2022-10-17T19:39:15.672Z,16.16
2022-10-17T19:41:43.998Z,16.19
2022-10-17T19:44:11.097Z,15.90
2022-10-17T19:46:38.313Z,15.83
2022-10-17T19:49:05.808Z,15.78
2022-10-17T19:51:32.866Z,15.60
2022-10-17T19:54:00.840Z,15.64
2022-10-17T19:56:30.256Z,15.69
2022-10-17T19:58:57.840Z,15.73
2022-10-17T20:01:29.588Z,15.78
2022-10-17T20:03:56.906Z,15.78
2022-10-17T20:06:24.234Z,15.87
2022-10-17T20:08:51.123Z,15.95
2022-10-17T20:11:21.107Z,16.05
2022-10-17T20:13:48.253Z,16.03
2022-10-17T20:16:18.392Z,16.03
2022-10-17T20:18:45.087Z,16.18
2022-10-17T20:21:15.651Z,16.23
2022-10-17T20:23:43.404Z,16.28
2022-10-17T20:26:25.794Z,16.23
2022-10-17T20:29:02.506Z,16.28
2022-10-17T20:31:29.845Z,16.26
2022-10-17T20:33:58.033Z,16.33
2022-10-17T20:36:25.374Z,16.28
2022-10-17T20:38:56.448Z,16.37
2022-10-17T20:41:23.781Z,16.36
2022-10-17T20:43:51.996Z,16.32
2022-10-17T20:46:34.916Z,16.28
2022-10-17T20:49:03.806Z,16.28
2022-10-17T20:51:30.706Z,16.21
2022-10-17T20:56:26.922Z,16.07
2022-10-17T20:58:55.481Z,15.99
2022-10-17T21:01:23.341Z,15.83
2022-10-17T21:03:50.797Z,15.87
2022-10-17T21:06:18.620Z,16.03
2022-10-17T21:08:46.566Z,15.82
2022-10-17T21:11:19.207Z,15.58
2022-10-17T21:13:46.949Z,15.41
2022-10-17T21:16:15.973Z,15.29
2022-10-17T21:18:42.766Z,15.20
2022-10-17T21:21:10.840Z,15.11
2022-10-17T21:23:38.096Z,15.12
2022-10-17T21:26:07.023Z,15.21
2022-10-17T21:28:34.471Z,15.25
2022-10-17T21:31:16.311Z,15.20
2022-10-17T21:33:45.055Z,15.29
2022-10-17T21:36:13.549Z,15.20
2022-10-17T21:38:40.956Z,15.17
2022-10-17T21:41:09.214Z,15.24
2022-10-17T21:43:36.943Z,15.05
2022-10-17T21:46:09.643Z,15.12
2022-10-17T21:48:36.325Z,15.05
2022-10-17T21:51:05.490Z,14.99
2022-10-17T21:53:32.579Z,14.81
2022-10-17T21:56:01.007Z,14.77
2022-10-17T21:58:28.267Z,14.65
2022-10-17T22:01:03.910Z,14.59
2022-10-17T22:03:33.099Z,14.43
2022-10-17T22:06:12.963Z,14.48
2022-10-17T22:08:46.380Z,14.46
2022-10-17T22:11:22.556Z,14.59
2022-10-17T22:13:54.060Z,14.42
2022-10-17T22:16:20.805Z,14.68
2022-10-17T22:18:47.436Z,14.56
2022-10-17T22:21:17.909Z,14.41
2022-10-17T22:23:45.897Z,14.24
2022-10-17T22:26:12.492Z,14.20
2022-10-17T22:28:41.029Z,14.31
2022-10-17T22:31:08.699Z,14.13
2022-10-17T22:33:36.989Z,13.96
2022-10-17T22:36:03.886Z,13.90
2022-10-17T22:38:30.631Z,13.91
2022-10-17T22:40:57.280Z,13.91
2022-10-17T22:43:23.882Z,14.11
2022-10-17T22:45:57.875Z,14.05
2022-10-17T22:48:25.479Z,13.94
2022-10-17T22:50:53.595Z,13.86
2022-10-17T22:53:25.990Z,13.96
2022-10-17T22:55:54.177Z,13.84
2022-10-17T22:58:21.753Z,13.82
2022-10-17T23:00:50.096Z,13.62
2022-10-17T23:03:17.570Z,13.38
2022-10-17T23:05:44.781Z,13.26
2022-10-17T23:08:12.345Z,13.14
2022-10-17T23:10:39.405Z,13.01
2022-10-17T23:13:06.175Z,12.93
2022-10-17T23:15:33.611Z,13.03
2022-10-17T23:18:01.461Z,12.93
2022-10-17T23:20:29.442Z,12.88
2022-10-17T23:22:57.006Z,12.84
2022-10-17T23:25:23.795Z,12.80
2022-10-17T23:27:50.364Z,12.79
2022-10-17T23:30:17.313Z,12.72
2022-10-17T23:32:44.186Z,12.77
2022-10-17T23:35:10.966Z,12.74
2022-10-17T23:37:38.142Z,12.75
2022-10-17T23:40:06.055Z,12.69
2022-10-17T23:42:32.686Z,12.71
2022-10-17T23:44:59.319Z,12.91
2022-10-17T23:47:25.910Z,12.81
2022-10-17T23:49:52.452Z,12.85
2022-10-17T23:52:19.048Z,13.07
2022-10-17T23:54:45.603Z,13.13
2022-10-17T23:57:12.153Z,13.18
2022-10-17T23:59:38.695Z,13.27
